Time;durP1;ratioP1;P1;durP2;ratioP2;P2;SDS_P1;SDS_P2;PMS_P1;PMS_P2;Temp;Humidity;BMP_temperature;BMP_pressure;BME280_temperature;BME280_humidity;BME280_pressure;Samples;Min_cycle;Max_cycle;Signal;HPM_P1;HPM_P2
2021/01/10 00:00:16;;;;;;;15.90;9.67;;;-1.30;39.10;;;;;;10385994;28;20348;-71
2021/01/10 00:05:20;;;;;;;16.27;9.73;;;-1.40;39.00;;;;;;10372005;28;20230;-71
2021/01/10 00:10:24;;;;;;;15.93;10.43;;;-1.40;39.10;;;;;;10380603;28;20727;-71
2021/01/10 00:15:28;;;;;;;16.00;9.70;;;-1.40;39.40;;;;;;10378286;28;20221;-71
2021/01/10 00:20:30;;;;;;;17.30;10.43;;;-1.40;39.40;;;;;;10373937;28;20649;-72
2021/01/10 00:25:33;;;;;;;18.57;9.80;;;-1.40;39.40;;;;;;10396307;28;20222;-71
2021/01/10 00:30:38;;;;;;;19.67;10.60;;;-1.40;39.30;;;;;;10375642;28;20233;-72
2021/01/10 00:35:40;;;;;;;19.53;10.70;;;-1.50;39.40;;;;;;10373280;28;20627;-72
2021/01/10 00:40:42;;;;;;;26.20;11.10;;;-1.50;39.40;;;;;;10370847;28;20230;-72
2021/01/10 00:45:45;;;;;;;21.57;10.20;;;-1.60;39.30;;;;;;10390564;28;20225;-72
2021/01/10 00:50:48;;;;;;;21.27;11.07;;;-1.70;39.60;;;;;;10378486;28;20226;-71
2021/01/10 00:55:51;;;;;;;24.80;11.03;;;-1.70;39.70;;;;;;10375486;28;20246;-72
2021/01/10 01:00:54;;;;;;;17.90;10.07;;;-1.70;39.50;;;;;;10371068;28;20325;-71
2021/01/10 01:05:56;;;;;;;22.73;10.30;;;-1.80;39.20;;;;;;10363082;28;20234;-72
2021/01/10 01:10:58;;;;;;;25.17;9.97;;;-1.90;39.20;;;;;;10378134;28;21101;-72
2021/01/10 01:16:01;;;;;;;21.50;10.20;;;-2.10;39.20;;;;;;10375232;28;20218;-71
2021/01/10 01:21:04;;;;;;;19.70;9.43;;;-2.30;39.40;;;;;;10379611;28;20226;-71
2021/01/10 01:26:06;;;;;;;18.27;9.40;;;-2.30;39.90;;;;;;10370433;28;20234;-71
2021/01/10 01:31:10;;;;;;;18.00;9.73;;;-2.30;40.10;;;;;;10361730;28;20234;-72
2021/01/10 01:36:15;;;;;;;16.60;10.10;;;-2.20;40.50;;;;;;10370782;28;20240;-73
2021/01/10 01:41:17;;;;;;;20.40;11.13;;;-2.10;40.60;;;;;;10390385;28;20712;-71
2021/01/10 01:46:29;;;;;;;17.53;10.80;;;-2.00;40.50;;;;;;10383367;28;20228;-72
2021/01/10 01:51:32;;;;;;;20.00;10.83;;;-2.00;40.10;;;;;;10386142;28;20234;-72
2021/01/10 01:56:35;;;;;;;20.03;9.80;;;-1.90;40.00;;;;;;10371891;28;20298;-72
2021/01/10 02:01:39;;;;;;;17.90;10.37;;;-2.00;39.80;;;;;;10386870;28;20251;-72
2021/01/10 02:06:48;;;;;;;14.50;8.23;;;-2.00;39.70;;;;;;10383969;28;20301;-73
2021/01/10 02:11:53;;;;;;;15.87;9.23;;;-2.10;39.80;;;;;;10376453;28;20239;-72
2021/01/10 02:16:56;;;;;;;14.83;9.30;;;-2.10;39.90;;;;;;10387617;28;20234;-73
2021/01/10 02:22:05;;;;;;;14.67;8.80;;;-2.20;39.70;;;;;;10388208;28;20226;-73
2021/01/10 02:27:08;;;;;;;16.20;9.53;;;-2.20;40.00;;;;;;10388330;28;20226;-73
2021/01/10 02:32:11;;;;;;;16.97;9.83;;;-2.20;39.90;;;;;;10382749;28;20230;-72
2021/01/10 02:37:32;;;;;;;17.73;9.77;;;-2.20;39.80;;;;;;10377509;28;20776;-72
2021/01/10 02:42:44;;;;;;;17.43;9.20;;;-2.30;39.80;;;;;;10387875;28;20234;-72
2021/01/10 02:47:46;;;;;;;14.80;8.77;;;-2.40;39.80;;;;;;10377821;28;20362;-72
2021/01/10 02:52:49;;;;;;;23.10;10.83;;;-2.50;39.80;;;;;;10374065;28;20230;-72
2021/01/10 02:57:56;;;;;;;19.93;9.53;;;-2.50;40.30;;;;;;10380376;28;20349;-72
2021/01/10 03:03:01;;;;;;;20.17;8.80;;;-2.60;40.40;;;;;;10379829;28;20256;-72
2021/01/10 03:08:04;;;;;;;20.57;9.07;;;-2.60;40.50;;;;;;10395856;28;20254;-72
2021/01/10 03:13:08;;;;;;;27.87;9.20;;;-2.60;40.60;;;;;;10394583;28;20242;-72
2021/01/10 03:18:17;;;;;;;19.83;8.97;;;-2.60;40.70;;;;;;10394204;28;20225;-72
2021/01/10 03:23:19;;;;;;;14.07;8.17;;;-2.60;40.80;;;;;;10392087;28;20230;-72
2021/01/10 03:28:22;;;;;;;25.37;8.83;;;-2.60;40.70;;;;;;10398113;28;20587;-72
2021/01/10 03:33:25;;;;;;;16.40;7.97;;;-2.60;40.80;;;;;;10386294;28;20229;-72
2021/01/10 03:38:29;;;;;;;25.23;8.63;;;-2.60;41.00;;;;;;10384025;28;20230;-72
2021/01/10 03:43:32;;;;;;;24.87;7.90;;;-2.60;41.00;;;;;;10387589;28;20228;-68
2021/01/10 03:48:36;;;;;;;18.63;8.03;;;-2.60;40.90;;;;;;10380793;28;20260;-68
2021/01/10 03:53:38;;;;;;;12.70;7.83;;;-2.60;40.80;;;;;;10385747;28;20233;-68
2021/01/10 03:58:41;;;;;;;13.97;7.77;;;-2.60;40.90;;;;;;10391365;28;20312;-68
2021/01/10 04:03:43;;;;;;;15.37;7.63;;;-2.70;41.00;;;;;;10380353;28;20312;-68
2021/01/10 04:08:47;;;;;;;14.20;6.90;;;-2.60;41.20;;;;;;10366843;28;20605;-67
2021/01/10 04:13:50;;;;;;;19.27;7.87;;;-2.60;41.20;;;;;;10388287;28;20229;-68
2021/01/10 04:18:52;;;;;;;18.00;8.67;;;-2.60;41.00;;;;;;10383380;28;20239;-68
2021/01/10 04:23:54;;;;;;;18.67;8.43;;;-2.60;41.00;;;;;;10390660;28;20230;-68
2021/01/10 04:28:57;;;;;;;14.37;7.77;;;-2.70;41.00;;;;;;10371489;28;20643;-68
2021/01/10 04:34:00;;;;;;;23.03;8.03;;;-2.80;41.00;;;;;;10377875;28;20242;-68
2021/01/10 04:39:02;;;;;;;11.70;7.03;;;-2.80;41.00;;;;;;10368878;28;20241;-68
2021/01/10 04:44:06;;;;;;;14.63;6.90;;;-2.90;41.00;;;;;;10392413;28;20236;-68
2021/01/10 04:49:10;;;;;;;12.67;7.07;;;-3.00;41.20;;;;;;10378927;28;20794;-68
2021/01/10 04:54:14;;;;;;;14.50;6.90;;;-3.00;41.40;;;;;;10387501;28;20219;-68
2021/01/10 04:59:18;;;;;;;13.53;6.70;;;-2.90;41.70;;;;;;10392059;28;20233;-68
2021/01/10 05:04:20;;;;;;;11.73;6.73;;;-2.90;41.50;;;;;;10371133;28;20254;-68
2021/01/10 05:09:24;;;;;;;10.03;6.50;;;-2.90;41.60;;;;;;10381555;28;20241;-68
2021/01/10 05:14:27;;;;;;;13.10;6.03;;;-2.90;41.50;;;;;;10374774;28;20236;-68
2021/01/10 05:19:31;;;;;;;12.97;6.07;;;-2.90;41.70;;;;;;10387877;28;20229;-68
2021/01/10 05:24:33;;;;;;;12.30;6.17;;;-2.80;41.50;;;;;;10368647;28;20226;-67
2021/01/10 05:29:38;;;;;;;18.90;6.97;;;-2.80;41.20;;;;;;10383880;28;20234;-68
2021/01/10 05:34:40;;;;;;;15.70;7.37;;;-2.90;41.20;;;;;;10378844;28;20231;-68
2021/01/10 05:39:46;;;;;;;11.77;7.33;;;-2.90;41.20;;;;;;10381129;28;20223;-68
2021/01/10 05:44:51;;;;;;;12.27;6.70;;;-3.00;41.10;;;;;;10373355;28;20237;-68
2021/01/10 05:49:54;;;;;;;15.47;7.40;;;-3.00;41.50;;;;;;10375482;28;20310;-67
2021/01/10 05:54:58;;;;;;;12.20;6.43;;;-3.00;42.00;;;;;;10370428;28;20663;-68
2021/01/10 06:00:05;;;;;;;10.50;6.90;;;-2.90;42.10;;;;;;10373648;28;20322;-68
2021/01/10 06:05:11;;;;;;;10.60;6.17;;;-2.90;42.10;;;;;;10372869;28;20839;-67
2021/01/10 06:10:25;;;;;;;14.60;6.13;;;-2.80;42.20;;;;;;10379073;28;20225;-68
2021/01/10 06:15:31;;;;;;;14.83;5.90;;;-2.80;42.20;;;;;;10377350;28;20312;-68
2021/01/10 06:20:35;;;;;;;11.33;6.63;;;-2.70;42.20;;;;;;10365802;28;20261;-67
2021/01/10 06:25:44;;;;;;;11.90;6.17;;;-2.60;42.30;;;;;;10392344;28;20244;-67
2021/01/10 06:30:54;;;;;;;12.10;6.43;;;-2.60;42.30;;;;;;10372720;28;20245;-68
2021/01/10 06:36:02;;;;;;;11.53;6.33;;;-2.50;42.40;;;;;;10376873;28;20229;-67
2021/01/10 06:41:32;;;;;;;9.20;6.03;;;-2.40;42.50;;;;;;10377486;28;20236;-68
2021/01/10 06:46:36;;;;;;;10.93;6.10;;;-2.30;42.60;;;;;;10362423;28;20214;-68
2021/01/10 06:51:39;;;;;;;10.00;6.50;;;-2.20;42.40;;;;;;10384716;28;20254;-67
2021/01/10 06:56:47;;;;;;;10.70;6.87;;;-2.20;42.20;;;;;;10390587;28;20232;-67
2021/01/10 07:02:03;;;;;;;14.60;8.83;;;-2.10;42.40;;;;;;10383016;28;20225;-67
2021/01/10 07:07:06;;;;;;;12.23;7.37;;;-2.10;42.20;;;;;;10387772;28;20296;-67
2021/01/10 07:12:20;;;;;;;11.80;7.17;;;-2.10;41.90;;;;;;10378271;28;20228;-68
2021/01/10 07:17:25;;;;;;;11.73;7.93;;;-2.10;42.20;;;;;;10387471;28;20250;-68
2021/01/10 07:22:32;;;;;;;15.87;8.13;;;-2.10;42.30;;;;;;10370421;28;20250;-68
2021/01/10 07:27:35;;;;;;;13.63;7.93;;;-2.00;42.40;;;;;;10376985;28;20279;-68
2021/01/10 07:32:38;;;;;;;14.00;7.67;;;-2.00;42.20;;;;;;10370116;28;20607;-68
2021/01/10 07:37:42;;;;;;;12.80;7.73;;;-2.00;42.10;;;;;;10393270;28;20225;-68
2021/01/10 07:42:44;;;;;;;14.17;8.67;;;-2.00;42.20;;;;;;10372165;28;20233;-68
2021/01/10 07:47:49;;;;;;;14.60;8.50;;;-2.00;42.30;;;;;;10369429;28;20231;-68
2021/01/10 07:52:56;;;;;;;22.70;11.00;;;-2.00;42.60;;;;;;10383772;28;20249;-68
2021/01/10 07:58:19;;;;;;;16.30;9.87;;;-1.90;42.70;;;;;;10387625;28;20284;-68
2021/01/10 08:03:24;;;;;;;14.33;8.90;;;-1.80;43.00;;;;;;10359397;28;20233;-67
2021/01/10 08:08:41;;;;;;;14.67;9.13;;;-1.70;43.10;;;;;;10376434;28;20931;-67
2021/01/10 08:13:44;;;;;;;16.47;10.23;;;-1.60;43.10;;;;;;10364949;28;20314;-68
2021/01/10 08:18:47;;;;;;;16.30;10.60;;;-1.50;43.20;;;;;;10359427;28;20242;-67
2021/01/10 08:23:54;;;;;;;23.20;15.10;;;-1.40;43.10;;;;;;10366801;28;20699;-67
2021/01/10 08:29:00;;;;;;;24.03;13.63;;;-1.30;43.20;;;;;;10357766;28;20230;-67
2021/01/10 08:34:06;;;;;;;12.90;9.63;;;-1.20;43.10;;;;;;10354639;28;20218;-68
2021/01/10 08:39:09;;;;;;;27.47;19.70;;;-1.00;43.20;;;;;;10357185;28;20783;-68
2021/01/10 08:44:13;;;;;;;17.97;11.17;;;-1.00;43.00;;;;;;10341260;28;20234;-67
2021/01/10 08:49:17;;;;;;;14.20;9.87;;;-1.00;43.00;;;;;;10340555;28;20241;-68
2021/01/10 08:54:21;;;;;;;11.13;7.80;;;-0.90;43.00;;;;;;10360758;28;20280;-68
2021/01/10 08:59:24;;;;;;;15.07;10.07;;;-0.80;42.90;;;;;;10358281;28;20285;-68
2021/01/10 09:04:27;;;;;;;15.23;10.63;;;-0.70;43.10;;;;;;10333766;28;20237;-68
2021/01/10 09:09:43;;;;;;;13.47;9.67;;;-0.70;43.00;;;;;;10347442;28;20236;-68
2021/01/10 09:14:49;;;;;;;11.57;8.27;;;-0.60;43.10;;;;;;10364028;28;20919;-68
2021/01/10 09:20:00;;;;;;;12.87;8.33;;;-0.50;43.10;;;;;;10360778;28;20349;-68
2021/01/10 09:25:10;;;;;;;12.60;8.60;;;-0.50;43.10;;;;;;10353926;28;20710;-69
2021/01/10 09:30:15;;;;;;;10.70;8.17;;;-0.40;43.20;;;;;;10337307;28;20297;-68
2021/01/10 09:35:18;;;;;;;12.57;8.57;;;-0.30;43.20;;;;;;10335889;28;20237;-68
2021/01/10 09:40:21;;;;;;;11.77;8.63;;;-0.20;43.30;;;;;;10346392;28;20905;-67
2021/01/10 09:45:34;;;;;;;8.07;7.07;;;-0.10;43.30;;;;;;10337759;28;20242;-72
2021/01/10 09:50:38;;;;;;;15.33;9.83;;;0.10;43.60;;;;;;10360851;28;20902;-73
2021/01/10 09:55:46;;;;;;;15.57;10.90;;;0.20;43.60;;;;;;10362324;28;20236;-72
2021/01/10 10:00:56;;;;;;;13.27;9.60;;;0.30;43.90;;;;;;10336248;28;20231;-72
2021/01/10 10:05:59;;;;;;;12.77;9.20;;;0.40;43.80;;;;;;10342574;28;20751;-72
2021/01/10 10:11:18;;;;;;;9.50;7.83;;;0.60;43.90;;;;;;10339526;28;20707;-71
2021/01/10 10:16:20;;;;;;;10.37;8.33;;;0.70;44.40;;;;;;10353958;28;20305;-73
2021/01/10 10:21:24;;;;;;;8.70;7.47;;;0.90;44.40;;;;;;10326218;28;20309;-72
2021/01/10 10:26:27;;;;;;;11.63;8.77;;;1.10;44.60;;;;;;10328629;28;20223;-72
2021/01/10 10:31:29;;;;;;;10.40;8.50;;;1.30;44.40;;;;;;10328193;28;20227;-73
2021/01/10 10:36:32;;;;;;;10.03;8.40;;;1.40;44.40;;;;;;10335360;28;20409;-74
2021/01/10 10:41:35;;;;;;;11.10;8.83;;;1.60;44.50;;;;;;10364712;28;20867;-74
2021/01/10 10:46:40;;;;;;;13.03;9.77;;;1.80;44.40;;;;;;10361339;28;20230;-73
2021/01/10 10:51:43;;;;;;;11.83;9.40;;;1.90;44.30;;;;;;10379137;28;20249;-73
2021/01/10 10:56:46;;;;;;;11.13;9.13;;;2.00;44.40;;;;;;10382843;28;20241;-73
2021/01/10 11:01:49;;;;;;;11.53;9.17;;;2.20;44.40;;;;;;10372175;28;20234;-73
2021/01/10 11:06:52;;;;;;;12.23;9.73;;;2.30;44.40;;;;;;10357040;28;20222;-73
2021/01/10 11:11:55;;;;;;;13.03;10.23;;;2.40;44.40;;;;;;10342889;28;20237;-71
2021/01/10 11:16:57;;;;;;;13.37;11.20;;;2.50;44.40;;;;;;10372588;28;20223;-71
2021/01/10 11:22:03;;;;;;;15.50;12.00;;;2.60;44.40;;;;;;10356481;28;20231;-71
2021/01/10 11:27:05;;;;;;;13.97;11.33;;;2.60;44.40;;;;;;10370447;28;20235;-71
2021/01/10 11:32:09;;;;;;;13.83;11.43;;;2.70;44.20;;;;;;10367839;28;20237;-71
2021/01/10 11:37:12;;;;;;;13.90;11.27;;;2.80;44.00;;;;;;10322741;28;20313;-71
2021/01/10 11:42:15;;;;;;;13.50;11.03;;;2.80;44.00;;;;;;10314319;28;20231;-71
2021/01/10 11:47:17;;;;;;;12.63;10.93;;;2.80;44.00;;;;;;10319824;28;20228;-71
2021/01/10 11:52:20;;;;;;;12.63;10.80;;;2.90;44.10;;;;;;10320889;28;20312;-71
2021/01/10 11:57:22;;;;;;;13.60;10.27;;;2.80;44.10;;;;;;10328035;28;20223;-72
2021/01/10 12:02:25;;;;;;;13.67;10.63;;;2.90;44.10;;;;;;10325520;28;20223;-71
2021/01/10 12:07:28;;;;;;;11.20;10.00;;;2.90;44.10;;;;;;10315388;28;20227;-72
2021/01/10 12:12:31;;;;;;;11.63;9.77;;;3.00;44.30;;;;;;10325331;28;20604;-72
2021/01/10 12:17:33;;;;;;;13.67;11.27;;;3.20;45.40;;;;;;10323655;28;20233;-72
2021/01/10 12:22:37;;;;;;;13.57;10.73;;;3.10;45.00;;;;;;10321511;28;20243;-72
2021/01/10 12:27:39;;;;;;;12.73;11.03;;;3.30;44.60;;;;;;10332875;28;20228;-72
2021/01/10 12:32:42;;;;;;;12.77;11.30;;;3.40;44.40;;;;;;10323734;28;20354;-72
2021/01/10 12:37:46;;;;;;;12.97;10.77;;;3.40;44.30;;;;;;10313936;28;20574;-72
2021/01/10 12:42:49;;;;;;;14.47;11.90;;;3.40;44.20;;;;;;10317542;28;20238;-72
2021/01/10 12:47:51;;;;;;;14.20;11.83;;;3.50;44.00;;;;;;10333609;28;20281;-72
2021/01/10 12:52:54;;;;;;;13.50;11.50;;;3.50;44.00;;;;;;10336260;28;20233;-65
2021/01/10 12:57:57;;;;;;;13.30;11.33;;;3.60;44.80;;;;;;10327332;28;20253;-67
2021/01/10 13:02:59;;;;;;;15.70;12.70;;;3.60;44.20;;;;;;10321631;28;20227;-68
2021/01/10 13:08:02;;;;;;;20.77;16.73;;;3.70;43.90;;;;;;10315672;28;20231;-71
2021/01/10 13:13:05;;;;;;;13.40;12.00;;;3.70;43.80;;;;;;10321669;28;20593;-65
2021/01/10 13:18:07;;;;;;;13.80;12.13;;;3.70;43.60;;;;;;10314008;28;20247;-68
2021/01/10 13:23:11;;;;;;;14.00;12.50;;;3.70;43.80;;;;;;10310102;28;20237;-68
2021/01/10 13:28:14;;;;;;;13.27;11.40;;;3.70;43.70;;;;;;10316800;28;20226;-65
2021/01/10 13:33:16;;;;;;;12.67;11.40;;;3.80;45.80;;;;;;10304442;28;20327;-67
2021/01/10 13:38:19;;;;;;;12.57;11.27;;;4.00;47.00;;;;;;10296098;28;20245;-68
2021/01/10 13:43:23;;;;;;;13.77;12.30;;;4.30;45.90;;;;;;10305989;28;20240;-67
2021/01/10 13:48:25;;;;;;;13.20;11.83;;;4.50;44.70;;;;;;10300061;28;20241;-68
2021/01/10 13:53:28;;;;;;;15.03;12.80;;;4.40;44.00;;;;;;10301474;28;20275;-68
2021/01/10 13:58:30;;;;;;;15.53;13.37;;;4.60;43.80;;;;;;10302788;28;20227;-68
2021/01/10 14:03:33;;;;;;;15.90;13.00;;;4.50;43.50;;;;;;10305397;28;20228;-68
2021/01/10 14:08:36;;;;;;;15.73;14.03;;;4.50;43.50;;;;;;10301050;28;20227;-68
2021/01/10 14:13:38;;;;;;;17.23;15.43;;;4.40;43.30;;;;;;10304970;28;20227;-67
2021/01/10 14:18:40;;;;;;;14.97;13.37;;;4.40;43.60;;;;;;10305255;28;20759;-68
2021/01/10 14:23:43;;;;;;;15.07;13.37;;;4.30;43.50;;;;;;10307870;28;20226;-72
2021/01/10 14:28:45;;;;;;;17.60;14.73;;;4.30;43.50;;;;;;10315970;28;20596;-72
2021/01/10 14:33:48;;;;;;;14.90;13.07;;;4.30;43.40;;;;;;10321420;28;20242;-72
2021/01/10 14:38:51;;;;;;;14.97;13.30;;;4.30;43.30;;;;;;10319230;28;20224;-70
2021/01/10 14:43:54;;;;;;;11.90;10.50;;;4.20;43.10;;;;;;10294351;28;20658;-68
2021/01/10 14:48:57;;;;;;;14.23;12.60;;;4.30;46.60;;;;;;10287299;28;20235;-72
2021/01/10 14:54:00;;;;;;;14.03;12.57;;;4.50;46.00;;;;;;10293419;28;20614;-72
2021/01/10 14:59:02;;;;;;;13.87;12.37;;;4.70;44.50;;;;;;10351285;28;20230;-68
2021/01/10 15:04:05;;;;;;;13.67;12.30;;;4.80;43.70;;;;;;10369999;28;20233;-72
2021/01/10 15:09:09;;;;;;;13.67;12.00;;;4.80;43.20;;;;;;10358016;28;20230;-72
2021/01/10 15:14:12;;;;;;;13.87;12.47;;;4.70;42.90;;;;;;10357614;28;20230;-68
2021/01/10 15:19:14;;;;;;;14.27;12.63;;;4.70;43.10;;;;;;10335025;28;20241;-71
2021/01/10 15:24:17;;;;;;;12.93;11.57;;;4.60;42.90;;;;;;10325521;28;20710;-67
2021/01/10 15:29:20;;;;;;;12.80;10.93;;;4.50;42.80;;;;;;10319339;28;20600;-67
2021/01/10 15:34:22;;;;;;;12.20;10.90;;;4.50;42.90;;;;;;10320057;28;20226;-68
2021/01/10 15:39:25;;;;;;;20.30;14.77;;;4.40;42.70;;;;;;10314292;28;20264;-72
2021/01/10 15:44:28;;;;;;;23.67;16.57;;;4.30;42.30;;;;;;10385248;23;20229;-79
2021/01/10 15:49:30;;;;;;;26.07;20.97;;;4.30;42.30;;;;;;10387963;28;20313;-79
2021/01/10 15:54:33;;;;;;;30.67;22.43;;;4.20;42.10;;;;;;10375145;28;20228;-79
2021/01/10 15:59:35;;;;;;;25.17;21.07;;;4.10;42.00;;;;;;10384745;28;20322;-79
2021/01/10 16:04:38;;;;;;;33.40;26.87;;;4.00;41.90;;;;;;10377990;28;20325;-79
2021/01/10 16:09:42;;;;;;;26.37;22.03;;;3.90;41.80;;;;;;10381823;28;20246;-79
2021/01/10 16:14:44;;;;;;;49.20;33.13;;;3.80;41.70;;;;;;10368973;28;20317;-79
2021/01/10 16:19:48;;;;;;;46.87;32.47;;;3.70;41.70;;;;;;10378496;28;20648;-80
2021/01/10 16:24:51;;;;;;;35.30;24.50;;;3.60;41.60;;;;;;10376276;28;20649;-79
2021/01/10 16:29:53;;;;;;;32.67;22.40;;;3.50;41.50;;;;;;10393447;28;20239;-79
2021/01/10 16:34:56;;;;;;;31.47;20.77;;;3.40;41.40;;;;;;10372678;28;20748;-78
2021/01/10 16:40:00;;;;;;;27.57;22.63;;;3.20;41.50;;;;;;10372228;28;20296;-79
2021/01/10 16:45:05;;;;;;;21.90;17.30;;;3.10;41.20;;;;;;10371646;28;20280;-79
2021/01/10 16:50:08;;;;;;;23.97;19.13;;;3.00;41.40;;;;;;10371727;28;20310;-79
2021/01/10 16:55:17;;;;;;;35.90;24.63;;;2.90;41.50;;;;;;10375097;28;20234;-79
2021/01/10 17:00:20;;;;;;;32.03;21.67;;;2.80;41.50;;;;;;10399928;28;20265;-78
2021/01/10 17:05:23;;;;;;;42.20;25.97;;;2.80;40.90;;;;;;10375222;28;20229;-77
2021/01/10 17:10:27;;;;;;;38.83;27.07;;;2.60;40.80;;;;;;10363416;28;20246;-78
2021/01/10 17:15:29;;;;;;;30.13;23.07;;;2.50;40.70;;;;;;10367871;28;20250;-78
2021/01/10 17:20:32;;;;;;;25.50;20.47;;;2.30;40.90;;;;;;10358845;28;20320;-78
2021/01/10 17:25:35;;;;;;;22.70;17.97;;;2.20;41.10;;;;;;10367549;28;20303;-77
2021/01/10 17:30:37;;;;;;;19.17;15.37;;;2.20;41.20;;;;;;10371106;28;20252;-77
2021/01/10 17:35:39;;;;;;;16.63;12.63;;;2.10;41.00;;;;;;10374535;28;20309;-76
2021/01/10 17:40:43;;;;;;;16.13;13.47;;;1.90;40.90;;;;;;10372032;28;20662;-76
2021/01/10 17:45:45;;;;;;;14.93;11.90;;;1.80;40.80;;;;;;10362762;28;20250;-76
2021/01/10 17:50:47;;;;;;;13.63;11.73;;;1.70;40.60;;;;;;10395954;28;20764;-77
2021/01/10 17:55:51;;;;;;;16.10;13.07;;;1.70;40.40;;;;;;10369689;28;20262;-77
2021/01/10 18:00:53;;;;;;;15.73;12.23;;;1.60;40.20;;;;;;10366161;28;20223;-77
2021/01/10 18:05:59;;;;;;;20.23;15.63;;;1.50;40.60;;;;;;10362689;28;20252;-77
2021/01/10 18:11:02;;;;;;;22.23;17.87;;;1.40;40.40;;;;;;10364861;28;20264;-77
2021/01/10 18:16:05;;;;;;;23.53;18.47;;;1.30;40.60;;;;;;10359020;28;20237;-76
2021/01/10 18:21:08;;;;;;;19.30;15.40;;;1.30;40.60;;;;;;10377349;28;20314;-77
2021/01/10 18:26:13;;;;;;;23.50;18.43;;;1.30;41.30;;;;;;10360006;28;20240;-76
2021/01/10 18:31:15;;;;;;;18.57;15.87;;;1.30;40.50;;;;;;10367131;28;20318;-76
2021/01/10 18:36:17;;;;;;;17.07;14.27;;;1.10;40.60;;;;;;10378150;28;20238;-76
2021/01/10 18:41:21;;;;;;;19.73;15.50;;;1.00;40.60;;;;;;10374148;28;20313;-77
2021/01/10 18:46:24;;;;;;;19.57;15.80;;;0.90;40.50;;;;;;10365762;28;20237;-78
2021/01/10 18:51:35;;;;;;;19.83;15.27;;;0.80;40.20;;;;;;10405208;28;20225;-77
2021/01/10 18:56:40;;;;;;;17.70;14.23;;;0.80;40.20;;;;;;10405743;28;20305;-77
2021/01/10 19:01:42;;;;;;;25.73;16.37;;;0.60;40.20;;;;;;10370751;28;20232;-77
2021/01/10 19:06:46;;;;;;;23.63;16.10;;;0.50;40.40;;;;;;10361407;28;20710;-77
2021/01/10 19:11:49;;;;;;;25.13;17.67;;;0.40;40.60;;;;;;10345823;28;20694;-77
2021/01/10 19:16:52;;;;;;;21.50;16.17;;;0.40;40.70;;;;;;10360732;28;20313;-77
2021/01/10 19:21:58;;;;;;;22.57;15.47;;;0.30;40.70;;;;;;10362007;28;20242;-76
2021/01/10 19:27:02;;;;;;;25.80;18.33;;;0.30;41.00;;;;;;10364750;28;20250;-76
2021/01/10 19:32:06;;;;;;;23.83;16.33;;;0.30;41.10;;;;;;10354246;28;20621;-77
2021/01/10 19:37:09;;;;;;;23.87;16.77;;;0.30;40.90;;;;;;10365302;28;20230;-77
2021/01/10 19:42:13;;;;;;;23.77;17.53;;;0.30;40.90;;;;;;10352797;28;20692;-77
2021/01/10 19:47:15;;;;;;;21.00;15.17;;;0.20;40.90;;;;;;10364977;28;20305;-76
2021/01/10 19:52:19;;;;;;;20.83;16.33;;;0.10;41.00;;;;;;10366002;28;20306;-76
2021/01/10 19:57:22;;;;;;;23.17;17.07;;;0.00;41.30;;;;;;10381284;28;20413;-77
2021/01/10 20:02:24;;;;;;;24.03;17.83;;;0.00;41.60;;;;;;10390187;28;20226;-75
2021/01/10 20:07:36;;;;;;;37.57;28.53;;;0.00;41.80;;;;;;10372322;28;20234;-76
2021/01/10 20:12:40;;;;;;;22.43;16.77;;;0.20;42.00;;;;;;10382693;28;20230;-77
2021/01/10 20:17:42;;;;;;;25.50;19.70;;;0.00;42.00;;;;;;10361630;28;20234;-76
2021/01/10 20:22:45;;;;;;;18.20;14.87;;;0.10;42.00;;;;;;10381462;28;20655;-76
2021/01/10 20:28:07;;;;;;;20.27;14.80;;;0.20;42.00;;;;;;10371106;28;20223;-77
2021/01/10 20:33:11;;;;;;;24.20;16.97;;;0.20;41.80;;;;;;10364619;28;20291;-76
2021/01/10 20:38:13;;;;;;;17.57;13.77;;;0.20;41.80;;;;;;10363478;28;20706;-78
2021/01/10 20:43:16;;;;;;;22.57;16.63;;;0.10;42.00;;;;;;10372091;28;20241;-76
2021/01/10 20:48:19;;;;;;;18.63;14.43;;;0.10;42.20;;;;;;10380110;28;20222;-76
2021/01/10 20:53:21;;;;;;;18.37;13.47;;;0.10;42.30;;;;;;10367193;28;20902;-76
2021/01/10 20:58:24;;;;;;;18.43;14.67;;;0.10;42.40;;;;;;10374196;28;20805;-76
2021/01/10 21:03:26;;;;;;;22.63;17.43;;;0.20;42.50;;;;;;10398112;23;20229;-69
2021/01/10 21:08:28;;;;;;;19.03;15.63;;;0.20;42.50;;;;;;10380303;28;20342;-69
2021/01/10 21:13:32;;;;;;;17.13;13.87;;;0.30;42.60;;;;;;10354459;28;20736;-70
2021/01/10 21:18:34;;;;;;;20.00;15.03;;;0.50;42.90;;;;;;10357332;28;20354;-69
2021/01/10 21:23:38;;;;;;;21.97;16.87;;;0.40;42.80;;;;;;10344986;28;20223;-69
2021/01/10 21:28:42;;;;;;;19.83;16.20;;;0.50;42.70;;;;;;10337085;28;20223;-69
2021/01/10 21:33:58;;;;;;;23.00;18.03;;;0.50;42.60;;;;;;10360053;28;20222;-69
2021/01/10 21:39:03;;;;;;;21.50;17.70;;;0.50;42.60;;;;;;10374837;28;20236;-69
2021/01/10 21:44:07;;;;;;;19.87;15.87;;;0.50;42.70;;;;;;10384204;28;20296;-69
2021/01/10 21:49:09;;;;;;;23.93;18.27;;;0.60;42.80;;;;;;10379075;28;20248;-70
2021/01/10 21:54:11;;;;;;;21.67;16.60;;;0.60;42.70;;;;;;10368126;28;20229;-69
2021/01/10 21:59:15;;;;;;;20.63;16.93;;;0.70;42.80;;;;;;10369923;28;20222;-69
2021/01/10 22:04:17;;;;;;;20.77;16.97;;;0.70;42.80;;;;;;10355780;28;20232;-69
2021/01/10 22:09:20;;;;;;;20.60;15.63;;;0.80;42.90;;;;;;10362082;28;20242;-69
2021/01/10 22:14:23;;;;;;;20.97;17.40;;;0.90;43.00;;;;;;10362820;28;20249;-69
2021/01/10 22:19:25;;;;;;;22.23;18.03;;;0.90;42.90;;;;;;10359490;28;20231;-69
2021/01/10 22:24:27;;;;;;;21.73;16.87;;;1.00;42.80;;;;;;10363930;28;20600;-69
2021/01/10 22:29:30;;;;;;;17.67;13.83;;;1.00;42.80;;;;;;10355666;28;20233;-69
2021/01/10 22:34:33;;;;;;;21.97;16.60;;;1.00;42.80;;;;;;10351059;28;20602;-69
2021/01/10 22:39:35;;;;;;;22.30;17.93;;;1.00;42.70;;;;;;10360985;28;20592;-69
2021/01/10 22:44:39;;;;;;;22.63;17.43;;;1.10;42.90;;;;;;10365614;28;20246;-69
2021/01/10 22:49:41;;;;;;;21.90;17.17;;;1.10;42.70;;;;;;10359159;28;20230;-69
2021/01/10 22:54:44;;;;;;;21.47;16.73;;;1.00;42.70;;;;;;10359270;28;20648;-69
2021/01/10 22:59:47;;;;;;;18.13;14.13;;;1.00;42.70;;;;;;10355745;28;20706;-69
2021/01/10 23:04:50;;;;;;;19.07;15.50;;;0.90;42.70;;;;;;10362212;28;20743;-69
2021/01/10 23:09:52;;;;;;;18.00;14.47;;;0.90;42.90;;;;;;10358512;28;20280;-69
2021/01/10 23:14:56;;;;;;;20.77;15.73;;;0.90;42.90;;;;;;10353470;28;20230;-69
2021/01/10 23:19:58;;;;;;;21.77;16.00;;;1.00;43.10;;;;;;10367784;28;20714;-69
2021/01/10 23:25:00;;;;;;;22.23;15.77;;;1.00;43.00;;;;;;10358893;28;20326;-69
2021/01/10 23:30:07;;;;;;;21.20;16.40;;;1.10;43.00;;;;;;10371426;28;20337;-70
2021/01/10 23:35:12;;;;;;;19.77;15.40;;;1.20;43.00;;;;;;10371708;28;20242;-70
2021/01/10 23:40:15;;;;;;;20.03;16.37;;;1.20;42.90;;;;;;10359991;28;20226;-69
2021/01/10 23:45:18;;;;;;;21.67;16.80;;;1.30;42.90;;;;;;10369093;28;20226;-70
2021/01/10 23:50:21;;;;;;;19.80;15.50;;;1.30;42.90;;;;;;10364233;28;20241;-69
2021/01/10 23:55:23;;;;;;;22.27;17.33;;;1.30;42.90;;;;;;10355396;28;20313;-69
